TimeEDT,TemperatureF,Dew PointF,Humidity,Sea Level PressureIn,VisibilityMPH,Wind Direction,Wind SpeedMPH,Gust SpeedMPH,PrecipitationIn,Events,Conditions,WindDirDegrees,DateUTC
12:53 AM,64.9,64.9,100,30.11,0.5,Calm,Calm,-,N/A,Fog,Fog,0,2012-10-04 04:53:00
1:12 AM,64.4,64.4,100,30.11,0.2,Calm,Calm,-,0.01,Fog,Fog,0,2012-10-04 05:12:00
1:22 AM,64.4,64.4,100,30.11,0.5,Calm,Calm,-,0.01,Fog,Fog,0,2012-10-04 05:22:00
1:53 AM,64.0,64.0,100,30.11,0.8,Calm,Calm,-,0.01,,Mist,0,2012-10-04 05:53:00
2:08 AM,64.4,64.4,100,30.11,1.0,Calm,Calm,-,N/A,,Mist,0,2012-10-04 06:08:00
2:16 AM,64.4,64.4,100,30.11,0.8,Calm,Calm,-,N/A,,Overcast,0,2012-10-04 06:16:00
2:45 AM,64.4,64.4,100,30.11,0.2,Calm,Calm,-,N/A,Fog,Fog,0,2012-10-04 06:45:00
2:53 AM,64.9,64.0,97,30.12,0.2,Calm,Calm,-,N/A,Fog,Fog,0,2012-10-04 06:53:00
3:05 AM,64.4,64.4,100,30.11,0.5,Calm,Calm,-,N/A,Fog,Fog,0,2012-10-04 07:05:00
3:53 AM,64.0,64.0,100,30.10,0.2,Calm,Calm,-,N/A,Fog,Fog,0,2012-10-04 07:53:00
4:18 AM,64.4,64.4,100,30.10,0.5,Calm,Calm,-,N/A,Fog,Fog,0,2012-10-04 08:18:00
4:53 AM,64.0,64.0,100,30.11,0.8,Calm,Calm,-,N/A,,Overcast,0,2012-10-04 08:53:00
5:53 AM,64.0,64.0,100,30.12,0.5,Calm,Calm,-,N/A,Fog,Fog,0,2012-10-04 09:53:00
6:36 AM,64.4,64.4,100,30.12,1.2,Calm,Calm,-,0.00,,Overcast,0,2012-10-04 10:36:00
6:53 AM,64.0,64.0,100,30.11,1.2,Calm,Calm,-,0.00,,Overcast,0,2012-10-04 10:53:00
7:11 AM,64.4,64.4,100,30.11,0.5,Calm,Calm,-,N/A,Fog,Fog,0,2012-10-04 11:11:00
7:33 AM,64.4,64.4,100,30.11,2.0,Calm,Calm,-,N/A,,Overcast,0,2012-10-04 11:33:00
7:41 AM,64.4,64.4,100,30.11,5.0,Calm,Calm,-,N/A,,Mostly Cloudy,0,2012-10-04 11:41:00
7:53 AM,64.9,64.0,97,30.11,5.0,Calm,Calm,-,N/A,,Scattered Clouds,0,2012-10-04 11:53:00
8:53 AM,66.0,66.0,100,30.12,6.0,Calm,Calm,-,N/A,,Mostly Cloudy,0,2012-10-04 12:53:00
9:17 AM,66.2,66.2,100,30.12,4.0,Calm,Calm,-,N/A,,Overcast,0,2012-10-04 13:17:00
9:46 AM,66.2,66.2,100,30.13,5.0,Calm,Calm,-,0.00,Rain,Light Rain,0,2012-10-04 13:46:00
9:53 AM,66.9,66.9,100,30.13,5.0,Calm,Calm,-,0.00,,Mostly Cloudy,0,2012-10-04 13:53:00
10:32 AM,68.0,66.2,94,30.11,4.0,Calm,Calm,-,0.00,Rain,Light Rain,0,2012-10-04 14:32:00
10:53 AM,69.1,68.0,96,30.09,4.0,Calm,Calm,-,0.01,,Mostly Cloudy,0,2012-10-04 14:53:00
11:53 AM,72.0,69.1,91,30.10,5.0,Calm,Calm,-,N/A,,Mostly Cloudy,0,2012-10-04 15:53:00
12:04 PM,71.6,69.8,94,30.10,5.0,Calm,Calm,-,N/A,,Mostly Cloudy,0,2012-10-04 16:04:00
12:39 PM,71.6,69.8,94,30.08,6.0,Calm,Calm,-,0.00,Rain,Light Rain,0,2012-10-04 16:39:00
12:53 PM,72.0,69.1,91,30.08,6.0,Calm,Calm,-,0.00,Rain,Light Rain,0,2012-10-04 16:53:00
1:53 PM,73.0,69.1,87,30.06,8.0,Calm,Calm,-,0.00,,Mostly Cloudy,0,2012-10-04 17:53:00
2:53 PM,73.9,70.0,87,30.05,7.0,Calm,Calm,-,N/A,,Mostly Cloudy,0,2012-10-04 18:53:00
3:53 PM,73.9,70.0,87,30.04,7.0,South,4.6,-,N/A,,Mostly Cloudy,170,2012-10-04 19:53:00
4:04 PM,73.4,71.6,94,30.04,7.0,Calm,Calm,-,N/A,,Mostly Cloudy,0,2012-10-04 20:04:00
4:38 PM,73.4,69.8,88,30.04,8.0,Calm,Calm,-,N/A,,Mostly Cloudy,0,2012-10-04 20:38:00
4:53 PM,73.9,69.1,85,30.04,8.0,Calm,Calm,-,N/A,,Scattered Clouds,0,2012-10-04 20:53:00
5:12 PM,73.4,69.8,88,30.04,8.0,Calm,Calm,-,N/A,,Mostly Cloudy,0,2012-10-04 21:12:00
5:38 PM,73.4,69.8,88,30.03,7.0,Calm,Calm,-,0.01,,Mostly Cloudy,0,2012-10-04 21:38:00
5:53 PM,73.0,71.1,93,30.03,7.0,Calm,Calm,-,0.01,,Partly Cloudy,0,2012-10-04 21:53:00
6:53 PM,69.1,66.9,93,30.03,2.0,Calm,Calm,-,N/A,,Clear,0,2012-10-04 22:53:00
7:00 PM,68.0,66.2,94,30.03,1.0,Calm,Calm,-,N/A,,Clear,0,2012-10-04 23:00:00
7:07 PM,68.0,66.2,94,30.03,3.0,Calm,Calm,-,N/A,,Clear,0,2012-10-04 23:07:00
7:27 PM,66.2,66.2,100,30.04,2.0,Calm,Calm,-,N/A,,Partly Cloudy,0,2012-10-04 23:27:00
7:42 PM,66.2,66.2,100,30.04,7.0,Calm,Calm,-,N/A,,Partly Cloudy,0,2012-10-04 23:42:00
7:53 PM,66.9,66.0,97,30.04,8.0,Calm,Calm,-,N/A,,Partly Cloudy,0,2012-10-04 23:53:00
8:11 PM,66.2,64.4,94,30.04,1.8,Calm,Calm,-,N/A,,Clear,0,2012-10-05 00:11:00
8:15 PM,66.2,64.4,94,30.05,0.8,Calm,Calm,-,N/A,,Mist,0,2012-10-05 00:15:00
8:25 PM,66.2,64.4,94,30.04,0.2,Calm,Calm,-,N/A,Fog,Fog,0,2012-10-05 00:25:00
8:53 PM,63.0,63.0,100,30.05,0.2,Calm,Calm,-,N/A,Fog,Fog,0,2012-10-05 00:53:00
9:53 PM,62.1,62.1,100,30.06,0.5,Calm,Calm,-,N/A,Fog,Fog,0,2012-10-05 01:53:00
10:08 PM,60.8,60.8,100,30.06,0.2,Calm,Calm,-,N/A,Fog,Fog,0,2012-10-05 02:08:00
10:39 PM,60.8,60.8,100,30.06,0.5,Calm,Calm,-,N/A,Fog,Fog,0,2012-10-05 02:39:00
10:53 PM,60.1,59.0,96,30.06,0.2,Calm,Calm,-,N/A,Fog,Fog,0,2012-10-05 02:53:00
11:35 PM,59.0,57.2,94,30.06,0.8,Calm,Calm,-,N/A,,Mist,0,2012-10-05 03:35:00
11:49 PM,59.0,59.0,100,30.06,0.2,Calm,Calm,-,N/A,Fog,Fog,0,2012-10-05 03:49:00
11:53 PM,59.0,59.0,100,30.06,0.2,Calm,Calm,-,N/A,Fog,Fog,0,2012-10-05 03:53:00